Startpagina
METAR-TAF:

METAR-TAF

Vliegvelden :

Funafuti, Tuvalu

breedte: 08-31S, lengte: 179-13E, hoogte: 1 m

Actueel weer

Dit bericht is 2 uur en het 53 minuten geleden gemaakt, om 01:00 UTC
Wind 7 kt uit het noordnoordwesten
Temperatuur 33°C
Vochtigheid 63%
Druk 1007 hPa
Zicht 10 km of meer
Weinig wolken op 1800 ft, Cumulonimbus.
Weinig wolken op 1900 ft, Stapelwolken.
Gebroken wolken op 31000 ft

METAR: NGFU 120100Z 34007KT 9999 FEW018CB FEW019TCU BKN310 33/25 Q1007

Tijdstip: 15:53 (03:53 UTC)

Verwachting

Dit bericht is 4 uur en het 28 minuten geleden gemaakt, om 23:25 UTC
Verwachting geldig van 12 om 00 UTC tot 12 om 24 UTC
Wind 7 kt uit het noordnoordwesten
Zicht 10 km of meer
Weinig wolken op 2000 ft
Gebroken wolken op 10000 ft
Kans 40% :
Tijdelijke
van 12 om 00 UTC tot 12 om 12 UTC
Zicht: 5000 m
Gebroken wolken op 1500 ft
Weinig wolken op 1800 ft, Cumulonimbus.
onweer, regen

TAF: NGFU 112325Z 1200/1224 33007KT 9999 FEW020 BKN100 PROB40 TEMPO 1200/1212 5000 TSRA BKN015 FEW018CB

Waarnemingen en weersverwachtingen van meer dan 4000 vliegvelden (METAR en TAF).

De beschikbare stations zijn de gele en rode punten op de kaart.

Ga met uw muis naar het station om de naam te zien.

Klik dan om waarnemingen en weersverwachtingen te zien.

kaart wijzigen: klik op de groene knoppen met een zwart kruis om in te zoomen, op de groene knop met een streepje om uit te zoomen of op de groene pijlen voor aangrenzende kaarten.


METAR-TAF: